createdAt,value
2018-01-24T00:00:26.390Z,1016.55
2018-01-24T00:01:26.254Z,1016.61
2018-01-24T00:02:27.094Z,1016.57
2018-01-24T00:03:26.825Z,1016.53
2018-01-24T00:04:26.594Z,1016.55
2018-01-24T00:05:25.981Z,1016.52
2018-01-24T00:06:28.858Z,1016.38
2018-01-24T00:07:27.026Z,1016.42
2018-01-24T00:08:27.140Z,1016.37
2018-01-24T00:09:26.562Z,1016.38
2018-01-24T00:10:25.959Z,1016.37
2018-01-24T00:11:26.776Z,1016.30
2018-01-24T00:12:26.537Z,1016.23
2018-01-24T00:13:26.177Z,1016.27
2018-01-24T00:14:26.572Z,1016.25
2018-01-24T00:15:26.074Z,1016.26
2018-01-24T00:16:26.743Z,1016.25
2018-01-24T00:17:26.262Z,1016.21
2018-01-24T00:18:26.854Z,1016.19
2018-01-24T00:19:26.635Z,1016.19
2018-01-24T00:20:26.183Z,1016.15
2018-01-24T00:21:26.885Z,1016.11
2018-01-24T00:22:26.403Z,1016.11
2018-01-24T00:23:26.985Z,1016.20
2018-01-24T00:24:26.428Z,1016.23
2018-01-24T00:25:49.347Z,1016.09
2018-01-24T00:26:50.219Z,1016.20
2018-01-24T00:27:49.857Z,1016.18
2018-01-24T00:28:49.797Z,1016.17
2018-01-24T00:29:49.612Z,1016.23
2018-01-24T00:30:50.092Z,1016.15
2018-01-24T00:31:49.993Z,1016.23
2018-01-24T00:32:49.387Z,1016.18
2018-01-24T00:33:49.881Z,1016.15
2018-01-24T00:34:50.382Z,1016.16
2018-01-24T00:35:50.027Z,1016.18
2018-01-24T00:36:49.578Z,1016.18
2018-01-24T00:37:50.054Z,1016.18
2018-01-24T00:38:49.914Z,1016.12
2018-01-24T00:40:12.854Z,1016.19
2018-01-24T00:41:35.950Z,1016.21
2018-01-24T00:42:36.827Z,1016.20
2018-01-24T00:43:36.933Z,1016.18
2018-01-24T00:44:36.282Z,1016.16
2018-01-24T00:45:35.908Z,1016.15
2018-01-24T00:46:36.789Z,1016.15
2018-01-24T00:47:36.435Z,1016.18
2018-01-24T00:48:36.357Z,1016.12
2018-01-24T00:49:36.033Z,1016.21
2018-01-24T00:50:36.794Z,1016.19
2018-01-24T00:51:36.379Z,1016.18
2018-01-24T00:52:35.939Z,1016.24
2018-01-24T00:53:36.878Z,1016.18
2018-01-24T00:54:36.490Z,1016.22
2018-01-24T00:55:36.117Z,1016.19
2018-01-24T00:56:37.040Z,1016.09
2018-01-24T00:57:36.651Z,1016.11
2018-01-24T00:58:36.414Z,1016.10
2018-01-24T00:59:36.860Z,1015.98
2018-01-24T01:00:36.525Z,1015.89
2018-01-24T01:01:36.273Z,1015.93
2018-01-24T01:02:36.570Z,1015.91
2018-01-24T01:03:36.337Z,1015.93
2018-01-24T01:04:35.942Z,1015.92
2018-01-24T01:05:36.580Z,1015.96
2018-01-24T01:06:36.123Z,1015.95
2018-01-24T01:07:36.734Z,1015.95
2018-01-24T01:08:36.349Z,1015.99
2018-01-24T01:09:36.310Z,1016.02
2018-01-24T01:10:36.352Z,1015.95
2018-01-24T01:11:58.721Z,1015.95
2018-01-24T01:12:58.424Z,1016.04
2018-01-24T01:13:58.943Z,1015.99
2018-01-24T01:15:21.196Z,1016.08
2018-01-24T01:16:21.646Z,1016.11
2018-01-24T01:17:21.226Z,1016.07
2018-01-24T01:18:22.806Z,1016.12
2018-01-24T01:19:21.383Z,1016.11
2018-01-24T01:20:21.462Z,1016.09
2018-01-24T01:21:20.974Z,1016.13
2018-01-24T01:22:21.523Z,1016.10
2018-01-24T01:23:20.918Z,1016.19
2018-01-24T01:24:22.030Z,1016.17
2018-01-24T01:25:21.708Z,1016.17
2018-01-24T01:26:21.356Z,1016.17
2018-01-24T01:27:22.051Z,1016.13
2018-01-24T01:28:21.563Z,1016.17
2018-01-24T01:29:21.037Z,1016.12
2018-01-24T01:30:21.349Z,1016.16
2018-01-24T01:31:21.860Z,1016.09
2018-01-24T01:32:21.696Z,1016.10
2018-01-24T01:33:21.680Z,1016.10
2018-01-24T01:34:21.276Z,1016.05
2018-01-24T01:35:20.916Z,1016.10
2018-01-24T01:36:21.577Z,1016.02
2018-01-24T01:37:21.279Z,1016.07
2018-01-24T01:38:22.172Z,1016.15
2018-01-24T01:39:21.997Z,1016.12
2018-01-24T01:40:21.428Z,1016.09
2018-01-24T01:41:21.043Z,1016.13
2018-01-24T01:42:21.813Z,1016.14
2018-01-24T01:43:21.378Z,1016.17
2018-01-24T01:44:20.969Z,1016.15
2018-01-24T01:45:21.483Z,1016.15
2018-01-24T01:46:21.063Z,1016.17
2018-01-24T01:47:22.180Z,1016.17
2018-01-24T01:48:21.714Z,1016.20
2018-01-24T01:49:21.603Z,1016.18
2018-01-24T01:50:21.560Z,1016.20
2018-01-24T01:51:20.931Z,1016.23
2018-01-24T01:52:21.711Z,1016.23
2018-01-24T01:53:21.108Z,1016.20
2018-01-24T01:54:21.583Z,1016.16
2018-01-24T01:55:21.178Z,1016.19
2018-01-24T01:56:21.595Z,1016.21
2018-01-24T01:57:21.161Z,1016.11
2018-01-24T01:58:21.580Z,1016.20
2018-01-24T01:59:21.034Z,1016.16
2018-01-24T02:00:44.814Z,1016.19
2018-01-24T02:01:45.754Z,1016.20
2018-01-24T02:02:45.820Z,1016.19
2018-01-24T02:03:45.735Z,1016.18
2018-01-24T02:04:45.366Z,1016.24
2018-01-24T02:05:45.118Z,1016.25
2018-01-24T02:06:45.174Z,1016.21
2018-01-24T02:07:45.180Z,1016.29
2018-01-24T02:08:44.659Z,1016.21
2018-01-24T02:09:45.260Z,1016.22
2018-01-24T02:10:45.268Z,1016.18
2018-01-24T02:11:44.747Z,1016.21
2018-01-24T02:12:45.664Z,1016.19
2018-01-24T02:13:45.127Z,1016.14
2018-01-24T02:14:44.489Z,1016.16
2018-01-24T02:15:44.993Z,1016.19
2018-01-24T02:16:44.842Z,1016.16
2018-01-24T02:17:45.801Z,1016.18
2018-01-24T02:18:45.528Z,1016.13
2018-01-24T02:19:45.471Z,1016.11
2018-01-24T02:20:45.402Z,1016.10
2018-01-24T02:21:45.400Z,1016.18
2018-01-24T02:22:44.845Z,1016.10
2018-01-24T02:23:45.373Z,1016.11
2018-01-24T02:25:07.723Z,1016.13
2018-01-24T02:26:08.764Z,1016.13
2018-01-24T02:27:08.645Z,1016.11
2018-01-24T02:28:08.558Z,1016.06
2018-01-24T02:29:07.881Z,1016.12
2018-01-24T02:30:08.674Z,1016.06
2018-01-24T02:31:30.855Z,1016.10
2018-01-24T02:32:31.667Z,1016.12
2018-01-24T02:33:31.690Z,1016.08
2018-01-24T02:34:31.561Z,1016.05
2018-01-24T02:35:30.991Z,1016.11
2018-01-24T02:36:30.841Z,1016.07
2018-01-24T02:37:31.403Z,1016.10
2018-01-24T02:38:31.240Z,1016.07
2018-01-24T02:39:30.855Z,1016.04
2018-01-24T02:40:31.433Z,1016.09
2018-01-24T02:41:31.364Z,1016.09
2018-01-24T02:42:31.346Z,1016.13
2018-01-24T02:43:30.721Z,1016.14
2018-01-24T02:44:31.588Z,1016.12
2018-01-24T02:45:31.479Z,1016.14
2018-01-24T02:46:31.332Z,1016.06
2018-01-24T02:47:30.768Z,1016.11
2018-01-24T02:48:31.262Z,1016.06
2018-01-24T02:49:30.816Z,1016.06
2018-01-24T02:50:31.719Z,1016.07
2018-01-24T02:51:31.415Z,1015.97
2018-01-24T02:52:30.956Z,1015.99
2018-01-24T02:53:31.796Z,1016.07
2018-01-24T02:54:53.773Z,1016.07
2018-01-24T02:55:54.253Z,1015.91
2018-01-24T02:56:54.518Z,1015.99
2018-01-24T02:57:54.245Z,1016.03
2018-01-24T02:58:54.881Z,1016.03
2018-01-24T02:59:54.438Z,1016.01
2018-01-24T03:00:54.071Z,1016.03
2018-01-24T03:01:54.644Z,1015.99
2018-01-24T03:02:54.179Z,1015.97
2018-01-24T03:03:54.993Z,1016.00
2018-01-24T03:05:17.521Z,1015.95
2018-01-24T03:06:40.544Z,1015.98
2018-01-24T03:07:41.167Z,1015.97
2018-01-24T03:08:41.704Z,1016.02
2018-01-24T03:09:41.655Z,1015.97
2018-01-24T03:10:41.432Z,1015.90
2018-01-24T03:11:41.024Z,1015.93
2018-01-24T03:12:41.830Z,1015.89
2018-01-24T03:13:42.059Z,1015.91
2018-01-24T03:14:41.970Z,1015.82
2018-01-24T03:15:41.714Z,1015.83
2018-01-24T03:16:41.513Z,1015.89
2018-01-24T03:17:41.260Z,1015.80
2018-01-24T03:18:40.618Z,1015.84
2018-01-24T03:19:40.921Z,1015.86
2018-01-24T03:20:41.319Z,1015.90
2018-01-24T03:21:41.242Z,1015.94
2018-01-24T03:23:03.764Z,1015.94
2018-01-24T03:24:04.346Z,1015.90
2018-01-24T03:25:26.407Z,1015.90
2018-01-24T03:26:26.959Z,1015.90
2018-01-24T03:27:27.462Z,1015.97
2018-01-24T03:28:27.303Z,1016.01
2018-01-24T03:29:26.659Z,1015.95
2018-01-24T03:30:27.046Z,1015.98
2018-01-24T03:31:26.611Z,1015.96
2018-01-24T03:32:27.492Z,1015.96
2018-01-24T03:33:27.052Z,1015.99
2018-01-24T03:34:26.642Z,1015.98
2018-01-24T03:35:27.406Z,1016.03
2018-01-24T03:36:27.209Z,1016.03
2018-01-24T03:37:27.097Z,1016.04
2018-01-24T03:38:26.593Z,1016.09
2018-01-24T03:39:28.692Z,1016.04
2018-01-24T03:40:27.246Z,1015.98
2018-01-24T03:41:26.929Z,1016.06
2018-01-24T03:42:27.863Z,1016.06
2018-01-24T03:43:27.647Z,1016.03
2018-01-24T03:44:27.154Z,1016.09
2018-01-24T03:45:27.056Z,1016.12
2018-01-24T03:46:27.521Z,1016.11
2018-01-24T03:47:26.878Z,1016.10
2018-01-24T03:48:27.378Z,1016.18
2018-01-24T03:49:27.222Z,1016.18
2018-01-24T03:50:27.213Z,1016.16
2018-01-24T03:51:26.964Z,1016.13
2018-01-24T03:52:26.681Z,1016.14
2018-01-24T03:53:27.549Z,1016.13
2018-01-24T03:54:27.356Z,1016.11
2018-01-24T03:55:27.139Z,1016.14
2018-01-24T03:56:26.665Z,1016.10
2018-01-24T03:57:27.124Z,1016.09
2018-01-24T03:58:26.984Z,1016.08
2018-01-24T03:59:26.840Z,1016.09
2018-01-24T04:00:27.149Z,1016.16
2018-01-24T04:01:26.631Z,1016.11
2018-01-24T04:02:27.474Z,1016.14
2018-01-24T04:03:47.872Z,1016.05
2018-01-24T04:04:48.261Z,1016.13
2018-01-24T04:05:47.910Z,1016.12
2018-01-24T04:06:48.755Z,1016.11
2018-01-24T04:07:48.162Z,1016.10
2018-01-24T04:08:48.548Z,1016.14
2018-01-24T04:09:48.138Z,1016.06
2018-01-24T04:10:48.432Z,1016.17
2018-01-24T04:11:47.807Z,1016.09
2018-01-24T04:12:48.242Z,1016.15
2018-01-24T04:13:48.672Z,1016.13
2018-01-24T04:14:48.443Z,1016.11
2018-01-24T04:15:48.243Z,1016.06
2018-01-24T04:16:48.743Z,1016.11
2018-01-24T04:17:48.222Z,1016.10
2018-01-24T04:18:48.630Z,1016.12
2018-01-24T04:19:48.346Z,1016.12
2018-01-24T04:21:11.415Z,1016.11
2018-01-24T04:22:11.989Z,1016.14
2018-01-24T04:23:34.942Z,1016.14
2018-01-24T04:24:35.931Z,1016.12
2018-01-24T04:25:35.476Z,1016.12
2018-01-24T04:26:35.271Z,1016.12
2018-01-24T04:27:34.726Z,1016.13
2018-01-24T04:28:35.740Z,1016.10
2018-01-24T04:29:35.118Z,1016.14
2018-01-24T04:30:35.039Z,1016.14
2018-01-24T04:31:35.679Z,1016.12
2018-01-24T04:32:35.694Z,1016.12
2018-01-24T04:35:32.187Z,1016.16
2018-01-24T04:36:32.491Z,1016.16
2018-01-24T04:37:32.697Z,1016.18
2018-01-24T04:38:33.097Z,1016.14
2018-01-24T04:39:32.583Z,1016.11
2018-01-24T04:40:33.448Z,1016.14
2018-01-24T04:41:32.986Z,1016.08
2018-01-24T04:42:32.493Z,1016.03
2018-01-24T04:43:33.132Z,1016.04
2018-01-24T04:44:55.577Z,1016.03
2018-01-24T04:45:56.058Z,1016.03
2018-01-24T04:46:55.609Z,1016.09
2018-01-24T04:47:55.923Z,1016.05
2018-01-24T04:48:55.832Z,1015.99
2018-01-24T04:49:56.623Z,1016.01
2018-01-24T04:51:40.676Z,1016.06
2018-01-24T04:52:41.136Z,1016.05
2018-01-24T04:53:40.688Z,1016.07
2018-01-24T04:54:41.605Z,1016.05
2018-01-24T04:55:41.680Z,1016.07
2018-01-24T04:56:41.383Z,1016.08
2018-01-24T04:57:41.202Z,1016.10
2018-01-24T04:58:40.652Z,1016.10
2018-01-24T04:59:41.114Z,1016.03
2018-01-24T05:00:41.922Z,1015.99
2018-01-24T05:01:41.589Z,1016.00
2018-01-24T05:02:41.436Z,1016.05
2018-01-24T05:03:41.304Z,1016.06
2018-01-24T05:04:40.741Z,1016.11
2018-01-24T05:05:41.382Z,1016.13
2018-01-24T05:06:41.398Z,1016.01
2018-01-24T05:07:40.773Z,1016.04
2018-01-24T05:08:41.400Z,1016.08
2018-01-24T05:09:40.840Z,1016.02
2018-01-24T05:11:03.027Z,1016.01
2018-01-24T05:12:03.642Z,1016.02
2018-01-24T05:13:03.030Z,1015.98
2018-01-24T05:14:03.513Z,1015.99
2018-01-24T05:15:02.844Z,1015.98
2018-01-24T05:16:03.339Z,1015.99
2018-01-24T05:17:03.261Z,1015.98
2018-01-24T05:18:03.070Z,1016.02
2018-01-24T05:19:03.692Z,1015.99
2018-01-24T05:20:03.203Z,1015.98
2018-01-24T05:21:03.267Z,1016.01
2018-01-24T05:22:23.647Z,1015.99
2018-01-24T05:23:23.916Z,1016.00
2018-01-24T05:24:24.160Z,1016.02
2018-01-24T05:25:25.123Z,1016.00
2018-01-24T05:26:24.757Z,1015.97
2018-01-24T05:27:24.208Z,1016.00
2018-01-24T05:28:23.792Z,1015.94
2018-01-24T05:29:24.574Z,1016.00
2018-01-24T05:30:24.259Z,1016.00
2018-01-24T05:31:25.429Z,1016.00
2018-01-24T05:32:23.833Z,1016.00
2018-01-24T05:33:24.259Z,1015.94
2018-01-24T05:34:23.813Z,1015.97
2018-01-24T05:35:23.995Z,1015.95
2018-01-24T05:36:24.358Z,1015.93
2018-01-24T05:37:23.756Z,1015.94
2018-01-24T05:38:24.683Z,1015.93
2018-01-24T05:39:24.538Z,1015.93
2018-01-24T05:40:23.802Z,1015.86
2018-01-24T05:41:24.742Z,1015.92
2018-01-24T05:42:24.585Z,1015.92
2018-01-24T05:43:23.959Z,1015.90
2018-01-24T05:44:24.429Z,1015.91
2018-01-24T05:45:23.906Z,1015.88
2018-01-24T05:46:24.830Z,1015.80
2018-01-24T05:47:24.443Z,1015.91
2018-01-24T05:48:23.906Z,1015.81
2018-01-24T05:49:24.321Z,1015.78
2018-01-24T05:50:23.836Z,1015.77
2018-01-24T05:51:24.696Z,1015.76
2018-01-24T05:52:26.967Z,1015.73
2018-01-24T05:53:24.206Z,1015.70
2018-01-24T05:54:25.147Z,1015.72
2018-01-24T05:55:25.015Z,1015.69
2018-01-24T05:56:24.775Z,1015.67
2018-01-24T05:57:24.785Z,1015.61
2018-01-24T05:58:24.251Z,1015.61
2018-01-24T05:59:24.799Z,1015.60
2018-01-24T06:00:24.606Z,1015.57
2018-01-24T06:01:24.805Z,1015.61
2018-01-24T06:02:24.260Z,1015.63
2018-01-24T06:03:24.063Z,1015.66
2018-01-24T06:04:24.833Z,1015.64
2018-01-24T06:05:24.548Z,1015.37
2018-01-24T06:06:24.314Z,1015.60
2018-01-24T06:07:24.315Z,1015.56
2018-01-24T06:08:23.815Z,1015.53
2018-01-24T06:09:24.470Z,1015.56
2018-01-24T06:10:24.179Z,1015.58
2018-01-24T06:11:46.337Z,1015.59
2018-01-24T06:12:47.044Z,1015.65
2018-01-24T06:13:46.774Z,1015.60
2018-01-24T06:14:46.232Z,1015.59
2018-01-24T06:15:47.001Z,1015.61
2018-01-24T06:16:46.670Z,1015.57
2018-01-24T06:18:07.681Z,1015.57
2018-01-24T06:19:07.349Z,1015.55
2018-01-24T06:20:08.003Z,1015.53
2018-01-24T06:21:08.079Z,1015.58
2018-01-24T06:22:08.365Z,1015.60
2018-01-24T06:23:30.712Z,1015.65
2018-01-24T06:24:31.312Z,1015.70
2018-01-24T06:25:54.644Z,1015.69
2018-01-24T06:26:55.280Z,1015.69
2018-01-24T06:27:54.796Z,1015.65
2018-01-24T06:28:54.776Z,1015.66
2018-01-24T06:29:54.725Z,1015.64
2018-01-24T06:30:54.204Z,1015.61
2018-01-24T06:31:54.633Z,1015.68
2018-01-24T06:33:18.400Z,1015.64
2018-01-24T06:34:23.927Z,1015.60
2018-01-24T06:35:24.834Z,1015.62
2018-01-24T06:36:23.759Z,1015.68
2018-01-24T06:37:18.414Z,1015.70
2018-01-24T06:38:19.355Z,1015.71
2018-01-24T06:39:21.610Z,1015.76
2018-01-24T06:40:19.559Z,1015.75
2018-01-24T06:41:19.443Z,1015.75
2018-01-24T06:42:19.099Z,1015.69
2018-01-24T06:43:19.262Z,1015.66
2018-01-24T06:44:18.874Z,1015.71
2018-01-24T06:45:18.792Z,1015.68
2018-01-24T06:46:18.588Z,1015.70
2018-01-24T06:47:20.139Z,1015.65
2018-01-24T06:48:42.890Z,1015.70
2018-01-24T06:49:43.628Z,1015.67
2018-01-24T06:50:43.021Z,1015.69
2018-01-24T06:51:42.790Z,1015.68
2018-01-24T06:52:43.628Z,1015.69
2018-01-24T06:54:25.634Z,1015.68
2018-01-24T06:55:29.514Z,1015.65
2018-01-24T06:56:18.347Z,1015.63
2018-01-24T06:57:18.575Z,1015.58
2018-01-24T06:58:18.279Z,1015.62
2018-01-24T06:59:19.596Z,1015.61
2018-01-24T07:00:40.331Z,1015.53
2018-01-24T07:01:41.021Z,1015.49
2018-01-24T07:02:41.399Z,1015.47
2018-01-24T07:03:40.851Z,1015.48
2018-01-24T07:04:41.869Z,1015.43
2018-01-24T07:05:41.200Z,1015.45
2018-01-24T07:06:40.900Z,1015.40
2018-01-24T07:07:42.275Z,1015.44
2018-01-24T07:08:41.333Z,1015.49
2018-01-24T07:09:41.246Z,1015.48
2018-01-24T07:10:41.238Z,1015.47
2018-01-24T07:11:41.990Z,1015.46
2018-01-24T07:12:42.095Z,1015.48
2018-01-24T07:13:42.118Z,1015.46
2018-01-24T07:14:41.234Z,1015.38
2018-01-24T07:15:41.298Z,1015.35
2018-01-24T07:16:42.320Z,1015.37
2018-01-24T07:17:40.945Z,1015.40
2018-01-24T07:18:42.551Z,1015.43
2018-01-24T07:19:41.714Z,1015.46
2018-01-24T07:20:41.112Z,1015.40
2018-01-24T07:21:40.801Z,1015.43
2018-01-24T07:22:41.403Z,1015.40
2018-01-24T07:23:41.414Z,1015.41
2018-01-24T07:24:41.305Z,1015.38
2018-01-24T07:25:41.141Z,1015.34
2018-01-24T07:26:41.097Z,1015.37
2018-01-24T07:27:42.308Z,1015.38
2018-01-24T07:28:40.755Z,1015.40
2018-01-24T07:29:41.389Z,1015.41
2018-01-24T07:31:04.100Z,1015.40
2018-01-24T07:32:03.729Z,1015.31
2018-01-24T07:33:04.412Z,1015.32
2018-01-24T07:34:04.233Z,1015.36
2018-01-24T07:35:03.854Z,1015.34
2018-01-24T07:36:04.700Z,1015.31
2018-01-24T07:37:04.464Z,1015.32
2018-01-24T07:38:04.126Z,1015.28
2018-01-24T07:39:04.151Z,1015.32
2018-01-24T07:40:05.025Z,1015.29
2018-01-24T07:41:04.066Z,1015.37
2018-01-24T07:42:04.634Z,1015.34
2018-01-24T07:43:04.589Z,1015.38
2018-01-24T07:44:04.571Z,1015.34
2018-01-24T07:45:04.564Z,1015.36
2018-01-24T07:46:04.187Z,1015.33
2018-01-24T07:47:03.627Z,1015.36
2018-01-24T07:48:04.771Z,1015.37
2018-01-24T07:49:04.647Z,1015.27
2018-01-24T07:50:05.973Z,1015.35
2018-01-24T07:51:04.970Z,1015.30
2018-01-24T07:52:03.715Z,1015.30
2018-01-24T07:53:04.484Z,1015.32
2018-01-24T07:54:26.715Z,1015.29
2018-01-24T07:55:26.914Z,1015.35
2018-01-24T07:56:26.979Z,1015.32
2018-01-24T07:57:26.975Z,1015.31
2018-01-24T07:58:26.808Z,1015.31
2018-01-24T07:59:27.749Z,1015.26
2018-01-24T08:00:26.774Z,1015.33
2018-01-24T08:01:27.200Z,1015.29
2018-01-24T08:02:26.876Z,1015.27
2018-01-24T08:03:26.611Z,1015.25
2018-01-24T08:04:27.442Z,1015.22
2018-01-24T08:05:27.266Z,1015.13
2018-01-24T08:06:26.969Z,1015.18
2018-01-24T08:07:26.552Z,1015.23
2018-01-24T08:08:27.174Z,1015.07
2018-01-24T08:09:27.056Z,1015.17
2018-01-24T08:10:26.992Z,1015.12
2018-01-24T08:11:26.852Z,1015.23
2018-01-24T08:12:26.879Z,1015.12
2018-01-24T08:13:26.525Z,1015.03
2018-01-24T08:14:26.998Z,1015.07
2018-01-24T08:15:26.548Z,1015.11
2018-01-24T08:16:27.551Z,1015.14
2018-01-24T08:17:27.369Z,1015.06
2018-01-24T08:18:27.047Z,1015.10
2018-01-24T08:19:27.030Z,1015.07
2018-01-24T08:20:26.406Z,1015.08
2018-01-24T08:21:27.351Z,1015.13
2018-01-24T08:22:26.912Z,1015.14
2018-01-24T08:23:26.716Z,1015.12
2018-01-24T08:24:27.450Z,1015.07
2018-01-24T08:25:49.261Z,1015.05
2018-01-24T08:26:49.994Z,1015.00
2018-01-24T08:27:49.614Z,1015.03
2018-01-24T08:28:49.506Z,1015.00
2018-01-24T08:29:49.650Z,1014.98
2018-01-24T08:30:49.583Z,1014.95
2018-01-24T08:32:10.255Z,1015.03
2018-01-24T08:33:10.814Z,1014.97
2018-01-24T08:34:10.766Z,1014.93
2018-01-24T08:35:32.730Z,1014.89
2018-01-24T08:36:33.626Z,1014.84
2018-01-24T08:37:33.626Z,1014.97
2018-01-24T08:38:33.663Z,1014.94
2018-01-24T08:39:33.227Z,1014.99
2018-01-24T08:40:34.344Z,1014.99
2018-01-24T08:41:32.766Z,1014.97
2018-01-24T08:42:33.266Z,1014.99
2018-01-24T08:43:36.942Z,1014.88
2018-01-24T08:44:33.648Z,1014.97
2018-01-24T08:45:33.746Z,1014.91
2018-01-24T08:46:33.330Z,1014.89
2018-01-24T08:47:33.066Z,1014.93
2018-01-24T08:48:33.789Z,1014.93
2018-01-24T08:49:33.582Z,1014.89
2018-01-24T08:50:33.577Z,1014.91
2018-01-24T08:51:33.600Z,1014.88
2018-01-24T08:52:33.205Z,1014.86
2018-01-24T08:53:34.126Z,1014.87
2018-01-24T08:54:34.017Z,1014.80
2018-01-24T08:55:34.023Z,1014.78
2018-01-24T08:56:33.611Z,1014.73
2018-01-24T08:57:33.392Z,1014.80
2018-01-24T08:58:33.466Z,1014.73
2018-01-24T08:59:33.445Z,1014.72
2018-01-24T09:00:33.138Z,1014.65
2018-01-24T09:01:36.939Z,1014.77
2018-01-24T09:02:33.464Z,1014.73
2018-01-24T09:03:33.188Z,1014.70
2018-01-24T09:04:33.333Z,1014.77
2018-01-24T09:05:33.325Z,1014.75
2018-01-24T09:06:33.064Z,1014.80
2018-01-24T09:07:33.908Z,1014.78
2018-01-24T09:08:33.149Z,1014.77
2018-01-24T09:09:33.610Z,1014.73
2018-01-24T09:10:32.900Z,1014.83
2018-01-24T09:11:33.644Z,1014.76
2018-01-24T09:12:33.248Z,1014.75
2018-01-24T09:13:37.552Z,1014.75
2018-01-24T09:14:32.976Z,1014.76
2018-01-24T09:15:34.046Z,1014.75
2018-01-24T09:16:33.542Z,1014.79
2018-01-24T09:17:37.334Z,1014.65
2018-01-24T09:18:33.770Z,1014.60
2018-01-24T09:19:36.324Z,1014.64
2018-01-24T09:20:32.867Z,1014.66
2018-01-24T09:21:34.624Z,1014.56
2018-01-24T09:22:33.045Z,1014.54
2018-01-24T09:23:34.440Z,1014.67
2018-01-24T09:24:33.185Z,1014.50
2018-01-24T09:25:34.214Z,1014.55
2018-01-24T09:26:33.986Z,1014.47
2018-01-24T09:27:33.927Z,1014.40
2018-01-24T09:28:33.974Z,1014.47
2018-01-24T09:29:33.990Z,1014.56
2018-01-24T09:30:33.507Z,1014.49
2018-01-24T09:31:34.349Z,1014.53
2018-01-24T09:32:33.013Z,1014.48
2018-01-24T09:33:33.984Z,1014.47
2018-01-24T09:34:34.066Z,1014.53
2018-01-24T09:35:33.804Z,1014.46
2018-01-24T09:36:33.802Z,1014.52
2018-01-24T09:37:33.898Z,1014.50
2018-01-24T09:38:33.982Z,1014.51
2018-01-24T09:39:34.483Z,1014.48
2018-01-24T09:40:34.619Z,1014.41
2018-01-24T09:41:35.494Z,1014.46
2018-01-24T09:42:34.783Z,1014.43
2018-01-24T09:43:34.402Z,1014.43
2018-01-24T09:44:34.128Z,1014.39
2018-01-24T09:45:33.794Z,1014.41
2018-01-24T09:46:33.446Z,1014.35
2018-01-24T09:47:32.695Z,1014.39
2018-01-24T09:48:33.470Z,1014.33
2018-01-24T09:49:54.844Z,1014.40
2018-01-24T09:50:56.103Z,1014.43
2018-01-24T09:51:54.803Z,1014.42
2018-01-24T09:52:55.269Z,1014.41
2018-01-24T09:53:54.739Z,1014.37
2018-01-24T09:54:55.506Z,1014.38
2018-01-24T09:55:54.880Z,1014.35
2018-01-24T09:56:55.506Z,1014.36
2018-01-24T09:57:55.380Z,1014.41
2018-01-24T09:58:55.288Z,1014.37
2018-01-24T09:59:54.643Z,1014.32
2018-01-24T10:00:55.405Z,1014.32
2018-01-24T10:01:54.724Z,1014.33
2018-01-24T10:02:55.736Z,1014.29
2018-01-24T10:03:55.510Z,1014.30
2018-01-24T10:04:55.314Z,1014.23
2018-01-24T10:05:55.080Z,1014.29
2018-01-24T10:07:16.152Z,1014.29
2018-01-24T10:08:18.968Z,1014.21
2018-01-24T10:09:16.854Z,1014.26
2018-01-24T10:10:16.418Z,1014.25
2018-01-24T10:11:16.833Z,1014.25
2018-01-24T10:12:16.497Z,1014.27
2018-01-24T10:13:38.791Z,1014.23
2018-01-24T10:14:39.253Z,1014.15
2018-01-24T10:15:39.411Z,1014.19
2018-01-24T10:16:38.978Z,1014.19
2018-01-24T10:17:39.374Z,1014.19
2018-01-24T10:18:39.171Z,1014.16
2018-01-24T10:19:38.779Z,1014.08
2018-01-24T10:20:39.736Z,1014.08
2018-01-24T10:21:39.449Z,1014.03
2018-01-24T10:22:39.196Z,1014.03
2018-01-24T10:24:00.440Z,1013.96
2018-01-24T10:25:01.506Z,1014.10
2018-01-24T10:26:01.233Z,1013.96
2018-01-24T10:27:02.171Z,1014.00
2018-01-24T10:28:24.483Z,1013.95
2018-01-24T10:29:24.090Z,1013.99
2018-01-24T10:30:45.748Z,1014.01
2018-01-24T10:31:47.014Z,1014.01
2018-01-24T10:33:08.149Z,1013.96
2018-01-24T10:34:08.839Z,1013.95
2018-01-24T10:35:08.672Z,1014.00
2018-01-24T10:36:30.156Z,1014.00
2018-01-24T10:37:31.111Z,1013.88
2018-01-24T10:38:30.499Z,1013.96
2018-01-24T10:39:29.868Z,1013.94
2018-01-24T10:40:30.307Z,1013.91
2018-01-24T10:41:29.669Z,1013.88
2018-01-24T10:42:30.405Z,1013.60
2018-01-24T10:43:30.296Z,1013.82
2018-01-24T10:44:30.627Z,1013.93
2018-01-24T10:45:30.448Z,1013.83
2018-01-24T10:46:30.268Z,1013.85
2018-01-24T10:47:31.049Z,1013.72
2018-01-24T10:48:30.972Z,1013.71
2018-01-24T10:49:30.703Z,1013.70
2018-01-24T10:50:30.650Z,1013.74
2018-01-24T10:51:29.958Z,1013.68
2018-01-24T10:52:51.610Z,1013.71
2018-01-24T10:53:52.588Z,1013.65
2018-01-24T10:54:52.158Z,1013.58
2018-01-24T10:55:51.868Z,1013.65
2018-01-24T10:56:52.629Z,1013.67
2018-01-24T10:57:52.668Z,1013.61
2018-01-24T10:58:52.325Z,1013.51
2018-01-24T10:59:52.089Z,1013.49
2018-01-24T11:00:51.692Z,1013.53
2018-01-24T11:02:13.746Z,1013.58
2018-01-24T11:03:57.692Z,1013.53
2018-01-24T11:04:58.096Z,1013.37
2018-01-24T11:05:58.055Z,1013.36
2018-01-24T11:06:57.459Z,1013.33
2018-01-24T11:07:57.857Z,1013.32
2018-01-24T11:08:58.623Z,1013.36
2018-01-24T11:09:58.445Z,1013.40
2018-01-24T11:10:57.943Z,1013.29
2018-01-24T11:11:58.618Z,1013.19
2018-01-24T11:12:58.056Z,1013.14
2018-01-24T11:13:58.033Z,1013.13
2018-01-24T11:14:57.612Z,1013.12
2018-01-24T11:15:58.286Z,1012.96
2018-01-24T11:16:58.079Z,1013.12
2018-01-24T11:18:19.689Z,1013.16
2018-01-24T11:19:20.545Z,1013.14
2018-01-24T11:20:20.181Z,1013.25
2018-01-24T11:22:11.033Z,1013.21
2018-01-24T11:23:11.890Z,1013.15
2018-01-24T11:24:11.671Z,1013.04
2018-01-24T11:25:11.586Z,1013.09
2018-01-24T11:26:11.403Z,1013.07
2018-01-24T11:27:11.315Z,1013.00
2018-01-24T11:28:11.074Z,1013.04
2018-01-24T11:29:11.839Z,1013.01
2018-01-24T11:30:11.803Z,1012.99
2018-01-24T11:31:11.517Z,1012.85
2018-01-24T11:32:11.436Z,1012.89
2018-01-24T11:33:11.262Z,1012.85
2018-01-24T11:34:11.273Z,1012.86
2018-01-24T11:35:11.220Z,1012.91
2018-01-24T11:36:11.941Z,1012.89
2018-01-24T11:37:11.723Z,1012.83
2018-01-24T11:38:11.650Z,1012.87
2018-01-24T11:39:11.407Z,1012.74
2018-01-24T11:40:11.251Z,1012.84
2018-01-24T11:41:11.345Z,1012.50
2018-01-24T11:42:10.926Z,1012.55
2018-01-24T11:43:11.855Z,1012.55
2018-01-24T11:44:11.834Z,1012.51
2018-01-24T11:45:11.708Z,1012.43
2018-01-24T11:46:11.101Z,1012.41
2018-01-24T11:47:11.886Z,1012.38
2018-01-24T11:48:11.855Z,1012.36
2018-01-24T11:49:11.715Z,1012.45
2018-01-24T11:50:11.454Z,1012.31
2018-01-24T11:51:11.403Z,1012.24
2018-01-24T11:52:11.383Z,1012.35
2018-01-24T11:53:11.422Z,1012.22
2018-01-24T11:54:11.172Z,1012.29
2018-01-24T11:55:10.531Z,1012.28
2018-01-24T11:56:11.468Z,1012.31
2018-01-24T11:57:11.233Z,1012.23
2018-01-24T11:58:10.637Z,1012.24
2018-01-24T11:59:11.372Z,1012.14
2018-01-24T12:00:11.397Z,1012.15
2018-01-24T12:01:11.386Z,1012.24
2018-01-24T12:02:11.328Z,1012.32
2018-01-24T12:03:11.611Z,1012.35
2018-01-24T12:04:11.385Z,1012.27
2018-01-24T12:05:11.315Z,1012.38
2018-01-24T12:06:11.223Z,1012.23
2018-01-24T12:07:11.880Z,1012.30
2018-01-24T12:08:11.186Z,1012.33
2018-01-24T12:09:10.733Z,1012.32
2018-01-24T12:10:11.705Z,1012.35
2018-01-24T12:11:11.389Z,1012.16
2018-01-24T12:12:32.543Z,1012.39
2018-01-24T12:13:32.991Z,1012.30
2018-01-24T12:14:34.867Z,1012.37
2018-01-24T12:15:33.691Z,1012.27
2018-01-24T12:16:33.088Z,1012.40
2018-01-24T12:17:33.407Z,1012.40
2018-01-24T12:18:32.844Z,1012.41
2018-01-24T12:19:33.389Z,1012.21
2018-01-24T12:20:32.819Z,1012.23
2018-01-24T12:22:17.046Z,1012.22
2018-01-24T12:23:17.351Z,1012.17
2018-01-24T12:24:16.577Z,1012.25
2018-01-24T12:25:17.330Z,1012.14
2018-01-24T12:26:17.196Z,1012.22
2018-01-24T12:27:16.800Z,1012.10